sensor_id;sensor_type;location;lat;lon;timestamp;pressure;altitude;pressure_sealevel;temperature;humidity
64683;BME280;51107;47.652;19.016;2023-02-28T00:01:34;100981.88;;;-1.41;74.59
64683;BME280;51107;47.652;19.016;2023-02-28T00:04:02;100991.50;;;-1.49;75.16
64683;BME280;51107;47.652;19.016;2023-02-28T00:06:30;100995.97;;;-1.57;75.36
64683;BME280;51107;47.652;19.016;2023-02-28T00:08:59;101003.00;;;-1.65;75.35
64683;BME280;51107;47.652;19.016;2023-02-28T00:11:27;100997.53;;;-1.83;76.27
64683;BME280;51107;47.652;19.016;2023-02-28T00:13:56;101000.78;;;-1.76;75.82
64683;BME280;51107;47.652;19.016;2023-02-28T00:16:24;100996.69;;;-1.52;73.17
64683;BME280;51107;47.652;19.016;2023-02-28T00:18:53;101000.63;;;-1.40;71.26
64683;BME280;51107;47.652;19.016;2023-02-28T00:21:21;100993.59;;;-1.32;71.06
64683;BME280;51107;47.652;19.016;2023-02-28T00:23:49;101004.47;;;-1.25;71.52
64683;BME280;51107;47.652;19.016;2023-02-28T00:26:18;101006.22;;;-0.97;70.62
64683;BME280;51107;47.652;19.016;2023-02-28T00:28:51;101008.34;;;-0.83;70.61
64683;BME280;51107;47.652;19.016;2023-02-28T00:31:21;101010.16;;;-0.87;71.66
64683;BME280;51107;47.652;19.016;2023-02-28T00:33:49;101018.97;;;-1.26;72.83
64683;BME280;51107;47.652;19.016;2023-02-28T00:36:18;101017.06;;;-1.19;73.40
64683;BME280;51107;47.652;19.016;2023-02-28T00:38:47;101019.63;;;-1.19;74.74
64683;BME280;51107;47.652;19.016;2023-02-28T00:41:16;101012.00;;;-1.21;75.50
64683;BME280;51107;47.652;19.016;2023-02-28T00:43:44;101028.62;;;-1.06;74.09
64683;BME280;51107;47.652;19.016;2023-02-28T00:46:12;101017.25;;;-0.97;74.47
64683;BME280;51107;47.652;19.016;2023-02-28T00:48:41;101031.22;;;-1.07;73.66
64683;BME280;51107;47.652;19.016;2023-02-28T00:51:10;101016.03;;;-1.13;72.91
64683;BME280;51107;47.652;19.016;2023-02-28T00:53:39;101031.44;;;-1.15;73.22
64683;BME280;51107;47.652;19.016;2023-02-28T00:56:07;101036.47;;;-1.12;73.06
64683;BME280;51107;47.652;19.016;2023-02-28T00:58:35;101034.50;;;-1.32;74.74
64683;BME280;51107;47.652;19.016;2023-02-28T01:01:04;101027.47;;;-1.25;75.28
64683;BME280;51107;47.652;19.016;2023-02-28T01:03:33;101033.16;;;-1.15;75.20
64683;BME280;51107;47.652;19.016;2023-02-28T01:06:01;101033.22;;;-1.17;76.60
64683;BME280;51107;47.652;19.016;2023-02-28T01:08:30;101036.03;;;-0.98;76.54
64683;BME280;51107;47.652;19.016;2023-02-28T01:11:10;101039.63;;;-1.04;75.90
64683;BME280;51107;47.652;19.016;2023-02-28T01:13:41;101036.66;;;-1.18;77.53
64683;BME280;51107;47.652;19.016;2023-02-28T01:16:12;101038.62;;;-1.28;77.48
64683;BME280;51107;47.652;19.016;2023-02-28T01:18:41;101044.47;;;-1.24;78.14
64683;BME280;51107;47.652;19.016;2023-02-28T01:21:14;101047.59;;;-1.14;77.28
64683;BME280;51107;47.652;19.016;2023-02-28T01:23:44;101034.09;;;-1.18;77.23
64683;BME280;51107;47.652;19.016;2023-02-28T01:26:18;101036.69;;;-1.20;77.34
64683;BME280;51107;47.652;19.016;2023-02-28T01:28:48;101046.03;;;-1.18;77.59
64683;BME280;51107;47.652;19.016;2023-02-28T01:31:17;101040.37;;;-1.00;76.98
64683;BME280;51107;47.652;19.016;2023-02-28T01:33:47;101045.03;;;-1.13;78.00
64683;BME280;51107;47.652;19.016;2023-02-28T01:36:21;101045.28;;;-0.92;77.19
64683;BME280;51107;47.652;19.016;2023-02-28T01:38:50;101044.47;;;-0.94;76.58
64683;BME280;51107;47.652;19.016;2023-02-28T01:41:25;101033.22;;;-0.89;76.86
64683;BME280;51107;47.652;19.016;2023-02-28T01:47:02;101036.19;;;-1.03;79.20
64683;BME280;51107;47.652;19.016;2023-02-28T01:49:30;101039.97;;;-0.86;76.26
64683;BME280;51107;47.652;19.016;2023-02-28T01:51:58;101032.50;;;-0.92;78.67
64683;BME280;51107;47.652;19.016;2023-02-28T01:54:30;101040.13;;;-0.91;76.85
64683;BME280;51107;47.652;19.016;2023-02-28T01:57:13;101037.47;;;-0.88;77.34
64683;BME280;51107;47.652;19.016;2023-02-28T01:59:57;101035.94;;;-0.93;76.84
64683;BME280;51107;47.652;19.016;2023-02-28T02:02:27;101028.72;;;-1.09;77.75
64683;BME280;51107;47.652;19.016;2023-02-28T02:05:05;101034.88;;;-1.16;79.09
64683;BME280;51107;47.652;19.016;2023-02-28T02:07:37;101031.91;;;-1.02;78.74
64683;BME280;51107;47.652;19.016;2023-02-28T02:10:20;101031.84;;;-0.99;78.85
64683;BME280;51107;47.652;19.016;2023-02-28T02:13:08;101032.06;;;-0.78;78.18
64683;BME280;51107;47.652;19.016;2023-02-28T02:15:44;101019.50;;;-0.86;78.33
64683;BME280;51107;47.652;19.016;2023-02-28T02:18:37;101029.22;;;-0.97;78.13
64683;BME280;51107;47.652;19.016;2023-02-28T02:37:59;101020.75;;;-0.44;73.29
64683;BME280;51107;47.652;19.016;2023-02-28T02:43:36;101006.44;;;-0.23;69.08
64683;BME280;51107;47.652;19.016;2023-02-28T02:46:31;101012.22;;;-0.18;69.04
64683;BME280;51107;47.652;19.016;2023-02-28T02:49:03;101019.03;;;-0.17;67.92
64683;BME280;51107;47.652;19.016;2023-02-28T02:51:34;101020.78;;;-0.18;68.38
64683;BME280;51107;47.652;19.016;2023-02-28T02:54:17;101026.59;;;-0.14;68.31
64683;BME280;51107;47.652;19.016;2023-02-28T02:56:50;101021.47;;;-0.14;67.82
64683;BME280;51107;47.652;19.016;2023-02-28T02:59:21;101020.50;;;-0.10;65.79
64683;BME280;51107;47.652;19.016;2023-02-28T03:01:54;101023.97;;;-0.11;66.91
64683;BME280;51107;47.652;19.016;2023-02-28T03:04:27;101017.22;;;-0.13;66.68
64683;BME280;51107;47.652;19.016;2023-02-28T03:06:59;101032.63;;;-0.15;66.18
64683;BME280;51107;47.652;19.016;2023-02-28T03:09:28;101030.75;;;-0.10;65.83
64683;BME280;51107;47.652;19.016;2023-02-28T03:11:56;101029.34;;;-0.19;67.81
64683;BME280;51107;47.652;19.016;2023-02-28T03:33:23;101039.91;;;-0.03;65.22
64683;BME280;51107;47.652;19.016;2023-02-28T03:36:02;101028.75;;;0.00;64.46
64683;BME280;51107;47.652;19.016;2023-02-28T03:41:19;101042.53;;;-0.04;64.85
64683;BME280;51107;47.652;19.016;2023-02-28T03:43:56;101042.38;;;0.01;66.98
64683;BME280;51107;47.652;19.016;2023-02-28T03:46:29;101039.41;;;0.13;66.81
64683;BME280;51107;47.652;19.016;2023-02-28T03:49:05;101034.56;;;0.04;65.95
64683;BME280;51107;47.652;19.016;2023-02-28T03:51:38;101028.50;;;0.06;66.84
64683;BME280;51107;47.652;19.016;2023-02-28T03:54:13;101034.28;;;0.13;65.99
64683;BME280;51107;47.652;19.016;2023-02-28T03:56:51;101036.97;;;0.08;65.71
64683;BME280;51107;47.652;19.016;2023-02-28T03:59:28;101039.34;;;0.14;66.45
64683;BME280;51107;47.652;19.016;2023-02-28T04:01:58;101046.44;;;0.06;65.14
64683;BME280;51107;47.652;19.016;2023-02-28T04:04:28;101034.56;;;0.04;64.60
64683;BME280;51107;47.652;19.016;2023-02-28T04:07:07;101039.81;;;0.01;64.81
64683;BME280;51107;47.652;19.016;2023-02-28T04:09:37;101032.12;;;0.01;64.25
64683;BME280;51107;47.652;19.016;2023-02-28T04:12:05;101038.88;;;0.03;63.83
64683;BME280;51107;47.652;19.016;2023-02-28T04:14:34;101033.22;;;-0.07;65.08
64683;BME280;51107;47.652;19.016;2023-02-28T04:17:02;101025.78;;;-0.14;64.79
64683;BME280;51107;47.652;19.016;2023-02-28T04:19:31;101028.94;;;-0.06;64.78
64683;BME280;51107;47.652;19.016;2023-02-28T04:21:59;101034.09;;;-0.08;64.74
64683;BME280;51107;47.652;19.016;2023-02-28T04:24:28;101036.41;;;0.00;65.32
64683;BME280;51107;47.652;19.016;2023-02-28T04:26:57;101033.00;;;-0.01;63.91
64683;BME280;51107;47.652;19.016;2023-02-28T04:29:30;101016.81;;;-0.01;65.29
64683;BME280;51107;47.652;19.016;2023-02-28T04:32:01;101027.81;;;0.01;64.37
64683;BME280;51107;47.652;19.016;2023-02-28T04:34:31;101025.00;;;0.09;63.54
64683;BME280;51107;47.652;19.016;2023-02-28T04:37:00;101008.91;;;0.05;62.51
64683;BME280;51107;47.652;19.016;2023-02-28T04:39:41;101010.53;;;0.08;62.71
64683;BME280;51107;47.652;19.016;2023-02-28T04:42:11;101007.72;;;0.15;63.25
64683;BME280;51107;47.652;19.016;2023-02-28T04:44:39;101010.53;;;0.08;62.42
64683;BME280;51107;47.652;19.016;2023-02-28T04:47:07;101019.09;;;0.07;62.92
64683;BME280;51107;47.652;19.016;2023-02-28T04:49:36;101021.47;;;0.13;63.20
64683;BME280;51107;47.652;19.016;2023-02-28T04:52:04;101009.47;;;0.13;63.04
64683;BME280;51107;47.652;19.016;2023-02-28T04:54:32;101016.37;;;0.11;63.29
64683;BME280;51107;47.652;19.016;2023-02-28T04:57:01;101013.78;;;0.13;63.24
64683;BME280;51107;47.652;19.016;2023-02-28T04:59:30;101017.53;;;0.03;62.91
64683;BME280;51107;47.652;19.016;2023-02-28T05:01:58;101019.84;;;0.10;62.60
64683;BME280;51107;47.652;19.016;2023-02-28T05:04:27;101016.22;;;0.16;64.42
64683;BME280;51107;47.652;19.016;2023-02-28T05:06:55;101013.66;;;0.16;64.70
64683;BME280;51107;47.652;19.016;2023-02-28T05:09:23;101015.97;;;0.24;63.01
64683;BME280;51107;47.652;19.016;2023-02-28T05:11:52;101021.72;;;0.30;63.83
64683;BME280;51107;47.652;19.016;2023-02-28T05:14:20;101029.28;;;0.33;63.65
64683;BME280;51107;47.652;19.016;2023-02-28T05:16:49;101018.16;;;0.35;64.05
64683;BME280;51107;47.652;19.016;2023-02-28T05:19:17;101025.72;;;0.38;63.56
64683;BME280;51107;47.652;19.016;2023-02-28T05:21:53;101032.75;;;0.32;63.66
64683;BME280;51107;47.652;19.016;2023-02-28T05:24:22;101026.87;;;0.29;63.41
64683;BME280;51107;47.652;19.016;2023-02-28T05:26:53;101027.94;;;0.23;62.29
64683;BME280;51107;47.652;19.016;2023-02-28T05:29:21;101023.66;;;0.24;61.58
64683;BME280;51107;47.652;19.016;2023-02-28T05:31:50;101021.72;;;0.30;62.19
64683;BME280;51107;47.652;19.016;2023-02-28T05:34:18;101028.44;;;0.33;63.03
64683;BME280;51107;47.652;19.016;2023-02-28T05:36:50;101031.00;;;0.33;63.10
64683;BME280;51107;47.652;19.016;2023-02-28T05:39:18;101031.97;;;0.30;61.63
64683;BME280;51107;47.652;19.016;2023-02-28T05:41:47;101040.50;;;0.31;64.93
64683;BME280;51107;47.652;19.016;2023-02-28T05:44:15;101040.22;;;0.39;65.00
64683;BME280;51107;47.652;19.016;2023-02-28T05:46:44;101037.81;;;0.34;65.40
64683;BME280;51107;47.652;19.016;2023-02-28T05:49:12;101045.44;;;0.36;66.46
64683;BME280;51107;47.652;19.016;2023-02-28T05:51:40;101041.13;;;0.38;66.59
64683;BME280;51107;47.652;19.016;2023-02-28T05:54:09;101054.06;;;0.33;65.69
64683;BME280;51107;47.652;19.016;2023-02-28T05:56:40;101054.03;;;0.35;65.00
64683;BME280;51107;47.652;19.016;2023-02-28T05:59:12;101055.75;;;0.34;65.23
64683;BME280;51107;47.652;19.016;2023-02-28T06:01:43;101063.44;;;0.34;65.26
64683;BME280;51107;47.652;19.016;2023-02-28T06:04:20;101056.91;;;0.25;65.55
64683;BME280;51107;47.652;19.016;2023-02-28T06:06:58;101060.66;;;0.15;65.92
64683;BME280;51107;47.652;19.016;2023-02-28T06:09:28;101061.41;;;0.19;65.18
64683;BME280;51107;47.652;19.016;2023-02-28T06:12:02;101058.03;;;0.18;64.31
64683;BME280;51107;47.652;19.016;2023-02-28T06:14:34;101073.87;;;0.29;65.20
64683;BME280;51107;47.652;19.016;2023-02-28T06:17:03;101072.06;;;0.31;65.27
64683;BME280;51107;47.652;19.016;2023-02-28T06:19:32;101067.00;;;0.30;65.31
64683;BME280;51107;47.652;19.016;2023-02-28T06:22:00;101069.44;;;0.35;63.55
64683;BME280;51107;47.652;19.016;2023-02-28T06:24:29;101065.06;;;0.37;63.97
64683;BME280;51107;47.652;19.016;2023-02-28T06:26:58;101069.09;;;0.44;64.31
64683;BME280;51107;47.652;19.016;2023-02-28T06:29:34;101074.22;;;0.44;62.14
64683;BME280;51107;47.652;19.016;2023-02-28T06:32:03;101062.00;;;0.50;61.62
64683;BME280;51107;47.652;19.016;2023-02-28T06:34:31;101064.81;;;0.44;62.24
64683;BME280;51107;47.652;19.016;2023-02-28T06:37:02;101076.00;;;0.42;60.81
64683;BME280;51107;47.652;19.016;2023-02-28T06:39:31;101077.56;;;0.46;61.73
64683;BME280;51107;47.652;19.016;2023-02-28T06:41:59;101086.03;;;0.48;62.38
64683;BME280;51107;47.652;19.016;2023-02-28T06:44:28;101083.31;;;0.53;62.33
64683;BME280;51107;47.652;19.016;2023-02-28T06:47:04;101082.03;;;0.64;62.85
64683;BME280;51107;47.652;19.016;2023-02-28T06:49:34;101077.16;;;0.82;62.65
64683;BME280;51107;47.652;19.016;2023-02-28T06:52:03;101070.56;;;0.98;62.70
64683;BME280;51107;47.652;19.016;2023-02-28T06:54:31;101082.59;;;1.20;62.50
64683;BME280;51107;47.652;19.016;2023-02-28T06:57:00;101077.34;;;1.23;61.55
64683;BME280;51107;47.652;19.016;2023-02-28T06:59:28;101076.19;;;1.08;59.34
64683;BME280;51107;47.652;19.016;2023-02-28T07:01:57;101077.00;;;1.09;59.41
64683;BME280;51107;47.652;19.016;2023-02-28T07:04:25;101083.50;;;1.19;58.63
64683;BME280;51107;47.652;19.016;2023-02-28T07:06:55;101082.97;;;1.33;58.65
64683;BME280;51107;47.652;19.016;2023-02-28T07:09:24;101088.19;;;1.08;57.87
64683;BME280;51107;47.652;19.016;2023-02-28T07:11:58;101085.78;;;1.27;57.27
64683;BME280;51107;47.652;19.016;2023-02-28T07:14:27;101074.25;;;1.37;57.41
64683;BME280;51107;47.652;19.016;2023-02-28T07:16:55;101080.41;;;1.55;57.86
64683;BME280;51107;47.652;19.016;2023-02-28T07:19:23;101089.47;;;1.86;57.65
64683;BME280;51107;47.652;19.016;2023-02-28T07:21:52;101098.06;;;1.85;56.79
64683;BME280;51107;47.652;19.016;2023-02-28T07:24:20;101095.13;;;2.15;55.79
64683;BME280;51107;47.652;19.016;2023-02-28T07:26:49;101096.50;;;2.24;55.38
64683;BME280;51107;47.652;19.016;2023-02-28T07:29:17;101098.66;;;2.53;54.38
64683;BME280;51107;47.652;19.016;2023-02-28T07:31:45;101098.78;;;2.50;54.21
64683;BME280;51107;47.652;19.016;2023-02-28T07:34:15;101102.72;;;2.59;55.21
64683;BME280;51107;47.652;19.016;2023-02-28T07:36:43;101106.91;;;2.20;53.77
64683;BME280;51107;47.652;19.016;2023-02-28T07:39:11;101107.22;;;2.33;52.97
64683;BME280;51107;47.652;19.016;2023-02-28T07:41:40;101110.94;;;2.47;53.81
64683;BME280;51107;47.652;19.016;2023-02-28T07:44:11;101095.50;;;2.67;54.07
64683;BME280;51107;47.652;19.016;2023-02-28T07:46:40;101096.34;;;2.87;53.70
64683;BME280;51107;47.652;19.016;2023-02-28T07:49:08;101101.81;;;2.40;53.24
64683;BME280;51107;47.652;19.016;2023-02-28T07:51:37;101114.03;;;2.55;51.87
64683;BME280;51107;47.652;19.016;2023-02-28T07:54:06;101115.25;;;2.46;52.19
64683;BME280;51107;47.652;19.016;2023-02-28T07:56:34;101102.44;;;2.45;51.81
64683;BME280;51107;47.652;19.016;2023-02-28T07:59:02;101112.91;;;2.81;54.13
64683;BME280;51107;47.652;19.016;2023-02-28T08:01:31;101098.37;;;2.99;52.44
64683;BME280;51107;47.652;19.016;2023-02-28T08:04:00;101115.69;;;2.56;51.50
64683;BME280;51107;47.652;19.016;2023-02-28T08:06:28;101114.56;;;2.82;52.79
64683;BME280;51107;47.652;19.016;2023-02-28T08:08:56;101109.03;;;2.71;51.22
64683;BME280;51107;47.652;19.016;2023-02-28T08:11:25;101109.72;;;2.95;52.63
64683;BME280;51107;47.652;19.016;2023-02-28T08:13:54;101110.41;;;2.99;50.28
64683;BME280;51107;47.652;19.016;2023-02-28T08:16:22;101107.75;;;3.75;51.67
64683;BME280;51107;47.652;19.016;2023-02-28T08:18:51;101092.84;;;3.82;48.88
64683;BME280;51107;47.652;19.016;2023-02-28T08:21:20;101099.66;;;3.83;48.99
64683;BME280;51107;47.652;19.016;2023-02-28T08:23:50;101102.25;;;3.08;49.39
64683;BME280;51107;47.652;19.016;2023-02-28T08:26:19;101102.16;;;3.48;50.62
64683;BME280;51107;47.652;19.016;2023-02-28T08:28:48;101103.38;;;3.40;49.68
64683;BME280;51107;47.652;19.016;2023-02-28T08:31:17;101102.56;;;3.57;48.51
64683;BME280;51107;47.652;19.016;2023-02-28T08:33:46;101101.72;;;4.29;50.10
64683;BME280;51107;47.652;19.016;2023-02-28T08:36:18;101109.19;;;4.84;48.13
64683;BME280;51107;47.652;19.016;2023-02-28T08:38:47;101112.84;;;4.29;46.87
64683;BME280;51107;47.652;19.016;2023-02-28T08:41:15;101105.25;;;3.91;47.60
64683;BME280;51107;47.652;19.016;2023-02-28T08:43:44;101101.28;;;4.87;47.89
64683;BME280;51107;47.652;19.016;2023-02-28T08:46:13;101111.16;;;4.63;47.26
64683;BME280;51107;47.652;19.016;2023-02-28T08:48:42;101110.00;;;4.85;48.00
64683;BME280;51107;47.652;19.016;2023-02-28T08:51:14;101109.53;;;4.94;45.76
64683;BME280;51107;47.652;19.016;2023-02-28T08:53:49;101106.97;;;5.42;46.85
64683;BME280;51107;47.652;19.016;2023-02-28T08:56:17;101106.66;;;5.32;46.76
64683;BME280;51107;47.652;19.016;2023-02-28T08:58:47;101112.59;;;4.85;46.74
64683;BME280;51107;47.652;19.016;2023-02-28T09:01:16;101106.56;;;5.18;47.56
64683;BME280;51107;47.652;19.016;2023-02-28T09:03:47;101110.72;;;4.37;46.08
64683;BME280;51107;47.652;19.016;2023-02-28T09:06:17;101114.50;;;5.31;45.87
64683;BME280;51107;47.652;19.016;2023-02-28T09:08:46;101115.75;;;6.02;45.91
64683;BME280;51107;47.652;19.016;2023-02-28T09:11:14;101111.97;;;6.07;43.48
64683;BME280;51107;47.652;19.016;2023-02-28T09:13:43;101103.47;;;6.65;44.39
64683;BME280;51107;47.652;19.016;2023-02-28T09:16:14;101104.06;;;7.11;40.72
64683;BME280;51107;47.652;19.016;2023-02-28T09:18:43;101106.50;;;7.00;43.86
64683;BME280;51107;47.652;19.016;2023-02-28T09:21:17;101103.12;;;7.27;42.40
64683;BME280;51107;47.652;19.016;2023-02-28T09:23:47;101104.84;;;6.41;42.83
64683;BME280;51107;47.652;19.016;2023-02-28T09:26:27;101107.91;;;6.34;41.60
64683;BME280;51107;47.652;19.016;2023-02-28T09:29:09;101104.28;;;6.94;43.89
64683;BME280;51107;47.652;19.016;2023-02-28T09:31:39;101106.59;;;6.41;43.21
64683;BME280;51107;47.652;19.016;2023-02-28T09:34:07;101114.59;;;5.91;42.50
64683;BME280;51107;47.652;19.016;2023-02-28T09:36:36;101096.78;;;5.71;44.15
64683;BME280;51107;47.652;19.016;2023-02-28T09:39:13;101110.72;;;5.68;45.35
64683;BME280;51107;47.652;19.016;2023-02-28T09:41:45;101113.91;;;6.77;43.80
64683;BME280;51107;47.652;19.016;2023-02-28T09:44:33;101111.84;;;7.11;41.57
64683;BME280;51107;47.652;19.016;2023-02-28T09:47:34;101113.66;;;5.46;44.37
64683;BME280;51107;47.652;19.016;2023-02-28T09:52:55;101119.28;;;5.85;45.71
64683;BME280;51107;47.652;19.016;2023-02-28T09:55:36;101117.97;;;6.53;43.61
64683;BME280;51107;47.652;19.016;2023-02-28T09:58:31;101110.56;;;6.90;42.68
64683;BME280;51107;47.652;19.016;2023-02-28T10:01:11;101104.72;;;7.15;42.97
64683;BME280;51107;47.652;19.016;2023-02-28T10:03:55;101110.81;;;5.97;42.57
64683;BME280;51107;47.652;19.016;2023-02-28T10:06:30;101108.28;;;6.11;44.39
64683;BME280;51107;47.652;19.016;2023-02-28T10:09:04;101104.87;;;5.95;45.52
64683;BME280;51107;47.652;19.016;2023-02-28T10:11:38;101104.25;;;6.36;43.54
64683;BME280;51107;47.652;19.016;2023-02-28T10:14:18;101112.53;;;6.57;43.33
64683;BME280;51107;47.652;19.016;2023-02-28T10:17:01;101102.44;;;6.67;42.60
64683;BME280;51107;47.652;19.016;2023-02-28T10:22:27;101093.41;;;6.60;44.07
64683;BME280;51107;47.652;19.016;2023-02-28T10:24:58;101088.59;;;6.68;43.29
64683;BME280;51107;47.652;19.016;2023-02-28T10:27:33;101093.38;;;6.45;41.84
64683;BME280;51107;47.652;19.016;2023-02-28T10:30:02;101086.66;;;5.98;43.74
64683;BME280;51107;47.652;19.016;2023-02-28T10:32:33;101089.12;;;6.73;42.10
64683;BME280;51107;47.652;19.016;2023-02-28T10:35:18;101081.28;;;6.01;43.66
64683;BME280;51107;47.652;19.016;2023-02-28T10:37:50;101083.69;;;6.49;43.40
64683;BME280;51107;47.652;19.016;2023-02-28T10:43:00;101068.75;;;6.24;44.18
64683;BME280;51107;47.652;19.016;2023-02-28T10:45:31;101075.88;;;6.20;43.29
64683;BME280;51107;47.652;19.016;2023-02-28T10:48:26;101068.31;;;6.17;43.12
64683;BME280;51107;47.652;19.016;2023-02-28T10:50:53;101075.06;;;6.77;42.38
64683;BME280;51107;47.652;19.016;2023-02-28T10:56:03;101066.06;;;6.97;44.70
64683;BME280;51107;47.652;19.016;2023-02-28T10:58:56;101058.59;;;7.47;43.00
64683;BME280;51107;47.652;19.016;2023-02-28T11:04:01;101051.06;;;7.30;43.23
64683;BME280;51107;47.652;19.016;2023-02-28T11:06:34;101051.47;;;7.24;44.08
64683;BME280;51107;47.652;19.016;2023-02-28T11:09:25;101041.56;;;6.89;43.49
64683;BME280;51107;47.652;19.016;2023-02-28T11:11:55;101040.22;;;7.38;43.27
64683;BME280;51107;47.652;19.016;2023-02-28T11:14:26;101040.06;;;8.20;42.68
64683;BME280;51107;47.652;19.016;2023-02-28T11:16:59;101038.47;;;7.91;42.47
64683;BME280;51107;47.652;19.016;2023-02-28T11:19:34;101041.91;;;7.52;43.86
64683;BME280;51107;47.652;19.016;2023-02-28T11:22:06;101037.50;;;6.85;47.23
64683;BME280;51107;47.652;19.016;2023-02-28T11:24:42;101038.38;;;6.98;44.94
64683;BME280;51107;47.652;19.016;2023-02-28T11:29:59;101046.09;;;7.67;46.01
64683;BME280;51107;47.652;19.016;2023-02-28T11:32:30;101042.84;;;6.82;45.48
64683;BME280;51107;47.652;19.016;2023-02-28T11:35:17;101046.09;;;5.99;46.73
64683;BME280;51107;47.652;19.016;2023-02-28T11:37:50;101035.03;;;6.40;49.44
64683;BME280;51107;47.652;19.016;2023-02-28T11:41:15;101039.12;;;6.58;49.32
64683;BME280;51107;47.652;19.016;2023-02-28T11:46:27;101039.28;;;7.11;46.30
64683;BME280;51107;47.652;19.016;2023-02-28T11:53:01;101025.78;;;6.36;48.02
64683;BME280;51107;47.652;19.016;2023-02-28T11:55:25;101040.69;;;6.46;46.99
64683;BME280;51107;47.652;19.016;2023-02-28T11:58:14;101027.09;;;6.28;50.11
64683;BME280;51107;47.652;19.016;2023-02-28T12:06:27;101024.84;;;7.62;47.13
64683;BME280;51107;47.652;19.016;2023-02-28T12:09:05;101017.03;;;6.94;46.99
64683;BME280;51107;47.652;19.016;2023-02-28T12:11:52;101008.69;;;7.31;46.54
64683;BME280;51107;47.652;19.016;2023-02-28T12:20:17;101009.38;;;6.78;48.10
64683;BME280;51107;47.652;19.016;2023-02-28T12:27:59;100989.37;;;6.39;47.40
64683;BME280;51107;47.652;19.016;2023-02-28T12:30:31;101006.28;;;6.01;48.57
64683;BME280;51107;47.652;19.016;2023-02-28T12:35:37;100997.53;;;6.33;49.47
64683;BME280;51107;47.652;19.016;2023-02-28T12:38:17;100991.84;;;5.97;49.02
64683;BME280;51107;47.652;19.016;2023-02-28T12:40:56;100996.78;;;6.45;49.36
64683;BME280;51107;47.652;19.016;2023-02-28T12:43:34;100995.09;;;6.15;49.89
64683;BME280;51107;47.652;19.016;2023-02-28T12:46:12;100999.81;;;6.37;48.57
64683;BME280;51107;47.652;19.016;2023-02-28T12:48:47;100994.41;;;6.69;48.35
64683;BME280;51107;47.652;19.016;2023-02-28T12:51:18;100986.00;;;7.07;47.74
64683;BME280;51107;47.652;19.016;2023-02-28T12:54:35;100986.81;;;7.35;47.13
64683;BME280;51107;47.652;19.016;2023-02-28T12:57:09;100983.19;;;6.41;48.04
64683;BME280;51107;47.652;19.016;2023-02-28T13:10:47;100977.62;;;6.33;47.83
64683;BME280;51107;47.652;19.016;2023-02-28T13:13:21;100972.72;;;6.57;49.30
64683;BME280;51107;47.652;19.016;2023-02-28T13:16:05;100979.00;;;6.53;47.44
64683;BME280;51107;47.652;19.016;2023-02-28T13:18:45;100972.53;;;6.60;48.36
64683;BME280;51107;47.652;19.016;2023-02-28T13:21:28;100974.56;;;6.70;49.27
64683;BME280;51107;47.652;19.016;2023-02-28T13:24:02;100953.53;;;6.74;48.40
64683;BME280;51107;47.652;19.016;2023-02-28T13:34:49;100967.03;;;6.38;47.99
64683;BME280;51107;47.652;19.016;2023-02-28T13:37:36;100961.66;;;6.41;49.50
64683;BME280;51107;47.652;19.016;2023-02-28T13:47:42;100963.38;;;6.55;50.00
64683;BME280;51107;47.652;19.016;2023-02-28T14:06:38;100938.06;;;6.45;49.90
64683;BME280;51107;47.652;19.016;2023-02-28T14:09:34;100943.16;;;6.33;49.41
64683;BME280;51107;47.652;19.016;2023-02-28T14:17:57;100940.69;;;6.17;51.05
64683;BME280;51107;47.652;19.016;2023-02-28T14:20:31;100932.53;;;6.08;49.99
64683;BME280;51107;47.652;19.016;2023-02-28T14:31:58;100929.28;;;5.76;51.74
64683;BME280;51107;47.652;19.016;2023-02-28T14:34:58;100928.19;;;5.80;51.15
64683;BME280;51107;47.652;19.016;2023-02-28T14:37:33;100930.03;;;5.92;51.90
64683;BME280;51107;47.652;19.016;2023-02-28T14:40:14;100923.50;;;6.01;51.89
64683;BME280;51107;47.652;19.016;2023-02-28T14:42:55;100924.22;;;5.89;51.67
64683;BME280;51107;47.652;19.016;2023-02-28T14:45:24;100926.78;;;5.89;53.24
64683;BME280;51107;47.652;19.016;2023-02-28T14:47:53;100928.09;;;5.82;51.84
64683;BME280;51107;47.652;19.016;2023-02-28T14:50:47;100933.78;;;5.72;52.10
64683;BME280;51107;47.652;19.016;2023-02-28T14:53:20;100933.69;;;5.74;52.69
64683;BME280;51107;47.652;19.016;2023-02-28T14:55:49;100937.97;;;5.75;52.00
64683;BME280;51107;47.652;19.016;2023-02-28T14:58:26;100937.19;;;5.73;52.67
64683;BME280;51107;47.652;19.016;2023-02-28T15:00:57;100940.59;;;5.44;51.74
64683;BME280;51107;47.652;19.016;2023-02-28T15:03:30;100946.88;;;5.55;52.07
64683;BME280;51107;47.652;19.016;2023-02-28T15:06:04;100939.28;;;5.37;52.74
64683;BME280;51107;47.652;19.016;2023-02-28T15:08:33;100937.63;;;5.51;53.22
64683;BME280;51107;47.652;19.016;2023-02-28T15:11:08;100938.00;;;5.44;53.24
64683;BME280;51107;47.652;19.016;2023-02-28T15:13:46;100925.22;;;5.72;53.39
64683;BME280;51107;47.652;19.016;2023-02-28T15:16:42;100919.19;;;5.57;53.63
64683;BME280;51107;47.652;19.016;2023-02-28T15:19:26;100920.31;;;5.67;53.41
64683;BME280;51107;47.652;19.016;2023-02-28T15:22:30;100932.50;;;5.65;53.42
64683;BME280;51107;47.652;19.016;2023-02-28T15:25:00;100933.94;;;5.55;52.82
64683;BME280;51107;47.652;19.016;2023-02-28T15:27:32;100933.13;;;5.69;53.81
64683;BME280;51107;47.652;19.016;2023-02-28T15:30:14;100928.44;;;5.61;53.28
64683;BME280;51107;47.652;19.016;2023-02-28T15:32:43;100931.94;;;5.60;53.50
64683;BME280;51107;47.652;19.016;2023-02-28T15:40:40;100925.28;;;5.56;53.46
64683;BME280;51107;47.652;19.016;2023-02-28T15:43:17;100923.84;;;5.66;53.95
64683;BME280;51107;47.652;19.016;2023-02-28T15:45:48;100915.50;;;5.61;53.24
64683;BME280;51107;47.652;19.016;2023-02-28T15:48:26;100913.28;;;5.55;54.11